Time;durP1;ratioP1;P1;durP2;ratioP2;P2;SDS_P1;SDS_P2;PMS_P1;PMS_P2;Temp;Humidity;BMP_temperature;BMP_pressure;BME280_temperature;BME280_humidity;BME280_pressure;Samples;Min_cycle;Max_cycle;Signal;HPM_P1;HPM_P2
2023/01/01 00:02:03;;;;;;;79.60;51.55;;;;;;;;;;4975803;28;20223;-66
2023/01/01 00:04:29;;;;;;;55.88;37.50;;;;;;;;;;4991614;28;20266;-66
2023/01/01 00:06:54;;;;;;;54.85;34.67;;;;;;;;;;5001712;28;20569;-67
2023/01/01 00:12:04;;;;;;;46.90;26.85;;;;;;;;;;4987939;28;20575;-66
2023/01/01 00:14:29;;;;;;;38.20;20.67;;;;;;;;;;4991586;28;20219;-67
2023/01/01 00:16:55;;;;;;;38.30;26.63;;;;;;;;;;4994782;28;20270;-67
2023/01/01 00:19:20;;;;;;;27.20;13.63;;;;;;;;;;5001657;28;20191;-67
2023/01/01 00:21:46;;;;;;;38.97;22.30;;;;;;;;;;4995938;28;20203;-67
2023/01/01 00:24:11;;;;;;;27.15;16.98;;;;;;;;;;4991200;28;20215;-67
2023/01/01 00:26:37;;;;;;;35.30;20.83;;;;;;;;;;4987233;28;20616;-68
2023/01/01 00:29:03;;;;;;;33.42;19.52;;;;;;;;;;4990929;28;20199;-68
2023/01/01 00:31:29;;;;;;;38.35;21.92;;;;;;;;;;4991101;28;20854;-68
2023/01/01 00:33:55;;;;;;;22.63;14.55;;;;;;;;;;4992377;28;20208;-68
2023/01/01 00:36:23;;;;;;;28.90;14.32;;;;;;;;;;4989640;28;20179;-68
2023/01/01 00:38:48;;;;;;;23.40;14.23;;;;;;;;;;5001476;28;20186;-68
2023/01/01 00:41:15;;;;;;;28.35;16.38;;;;;;;;;;4996395;28;20227;-68
2023/01/01 00:43:41;;;;;;;53.28;35.55;;;;;;;;;;5001220;28;20218;-67
2023/01/01 00:46:07;;;;;;;29.92;16.30;;;;;;;;;;4988195;28;20640;-68
2023/01/01 00:48:33;;;;;;;25.63;14.25;;;;;;;;;;4990386;28;20216;-67
2023/01/01 00:50:59;;;;;;;43.83;25.02;;;;;;;;;;4986824;28;20203;-67
2023/01/01 00:53:24;;;;;;;30.63;17.88;;;;;;;;;;4989475;28;20705;-67
2023/01/01 00:55:51;;;;;;;27.80;14.23;;;;;;;;;;4981585;28;20199;-67
2023/01/01 00:58:17;;;;;;;28.55;15.15;;;;;;;;;;4984569;28;20262;-67
2023/01/01 01:00:43;;;;;;;25.90;13.27;;;;;;;;;;4980990;28;20699;-68
2023/01/01 01:03:10;;;;;;;22.45;12.63;;;;;;;;;;4988719;28;20246;-69
2023/01/01 01:05:37;;;;;;;25.88;17.33;;;;;;;;;;4974659;28;20198;-68
2023/01/01 01:08:03;;;;;;;30.05;18.15;;;;;;;;;;4989842;28;20242;-68
2023/01/01 01:10:28;;;;;;;27.20;15.02;;;;;;;;;;4984094;28;20202;-69
2023/01/01 01:12:54;;;;;;;31.55;16.33;;;;;;;;;;4984782;28;20180;-69
2023/01/01 01:15:20;;;;;;;37.67;19.48;;;;;;;;;;4988896;28;20306;-69
2023/01/01 01:17:45;;;;;;;31.25;18.55;;;;;;;;;;4992371;28;20215;-69
2023/01/01 01:20:11;;;;;;;26.98;12.43;;;;;;;;;;4992437;28;20187;-69
2023/01/01 01:22:37;;;;;;;29.05;18.92;;;;;;;;;;4986920;28;20206;-69
2023/01/01 01:25:04;;;;;;;27.05;14.10;;;;;;;;;;4992789;28;20187;-69
2023/01/01 01:27:29;;;;;;;24.67;13.75;;;;;;;;;;4980312;28;20684;-69
2023/01/01 01:29:55;;;;;;;23.05;12.43;;;;;;;;;;4981896;28;20282;-69
2023/01/01 01:32:20;;;;;;;21.90;10.98;;;;;;;;;;4993671;28;20192;-69
2023/01/01 01:34:46;;;;;;;26.67;14.80;;;;;;;;;;4985513;28;20250;-69
2023/01/01 01:37:12;;;;;;;22.63;12.25;;;;;;;;;;4989067;28;20195;-69
2023/01/01 01:39:38;;;;;;;20.05;11.30;;;;;;;;;;4992712;28;20187;-69
2023/01/01 01:42:03;;;;;;;23.33;12.90;;;;;;;;;;4994158;28;20186;-68
2023/01/01 01:44:47;;;;;;;26.77;14.65;;;;;;;;;;4984022;28;20273;-68
2023/01/01 01:47:43;;;;;;;23.45;12.55;;;;;;;;;;4981306;28;20204;-69
2023/01/01 01:50:29;;;;;;;24.48;13.57;;;;;;;;;;4989396;28;20196;-69
2023/01/01 01:53:05;;;;;;;21.83;10.93;;;;;;;;;;4986066;28;20666;-68
2023/01/01 01:55:35;;;;;;;20.77;10.10;;;;;;;;;;4983145;28;20286;-69
2023/01/01 01:58:02;;;;;;;20.13;9.55;;;;;;;;;;4985158;28;20191;-69
2023/01/01 02:00:28;;;;;;;18.45;9.10;;;;;;;;;;4980903;28;20203;-70
2023/01/01 02:03:20;;;;;;;21.85;8.25;;;;;;;;;;4990625;28;20286;-68
2023/01/01 02:05:46;;;;;;;13.65;8.02;;;;;;;;;;4986735;28;20237;-69
2023/01/01 02:08:13;;;;;;;14.23;6.40;;;;;;;;;;4991965;28;20195;-69
2023/01/01 02:10:39;;;;;;;15.88;6.88;;;;;;;;;;4981967;28;20468;-69
2023/01/01 02:13:04;;;;;;;12.70;5.45;;;;;;;;;;4989693;28;20666;-69
2023/01/01 02:15:37;;;;;;;15.98;7.05;;;;;;;;;;4987458;28;20210;-69
2023/01/01 02:18:09;;;;;;;15.18;7.60;;;;;;;;;;4985775;28;20210;-68
2023/01/01 02:20:45;;;;;;;17.75;7.80;;;;;;;;;;4994392;28;20851;-69
2023/01/01 02:23:28;;;;;;;19.50;8.50;;;;;;;;;;5000965;28;20670;-68
2023/01/01 02:26:06;;;;;;;18.70;8.45;;;;;;;;;;4998189;28;20198;-68
2023/01/01 02:29:00;;;;;;;14.32;6.43;;;;;;;;;;4993541;28;20538;-68
2023/01/01 02:31:49;;;;;;;8.50;3.70;;;;;;;;;;4997247;28;20686;-68
2023/01/01 02:34:19;;;;;;;10.27;2.65;;;;;;;;;;5002223;28;20339;-70
2023/01/01 02:36:50;;;;;;;12.63;3.55;;;;;;;;;;5000475;28;20182;-69
2023/01/01 02:39:20;;;;;;;9.27;3.65;;;;;;;;;;5001321;28;20186;-69
2023/01/01 02:41:49;;;;;;;10.88;2.60;;;;;;;;;;4991005;28;20239;-68
2023/01/01 02:44:16;;;;;;;8.07;2.88;;;;;;;;;;4998057;28;20234;-69
2023/01/01 02:46:41;;;;;;;10.43;3.42;;;;;;;;;;4997911;28;20187;-68
2023/01/01 02:49:08;;;;;;;9.98;4.13;;;;;;;;;;4991751;28;20199;-69
2023/01/01 02:51:38;;;;;;;11.07;4.07;;;;;;;;;;4999210;28;20242;-69
2023/01/01 02:54:13;;;;;;;11.02;3.58;;;;;;;;;;4996219;28;20207;-68
2023/01/01 02:56:44;;;;;;;13.55;3.67;;;;;;;;;;4992974;28;20669;-69
2023/01/01 03:02:39;;;;;;;7.50;2.97;;;;;;;;;;4991133;28;20281;-68
2023/01/01 03:08:47;;;;;;;9.75;2.70;;;;;;;;;;4999349;28;20565;-69
2023/01/01 03:11:17;;;;;;;12.70;3.38;;;;;;;;;;4990135;28;20266;-69
2023/01/01 03:13:56;;;;;;;8.10;2.78;;;;;;;;;;4991462;28;20202;-68
2023/01/01 03:16:43;;;;;;;12.27;2.97;;;;;;;;;;4996401;28;20294;-68
2023/01/01 03:19:30;;;;;;;9.05;3.53;;;;;;;;;;4994600;28;20183;-68
2023/01/01 03:22:05;;;;;;;11.57;3.70;;;;;;;;;;4980597;28;20181;-68
2023/01/01 03:24:37;;;;;;;12.15;3.97;;;;;;;;;;4987632;28;20242;-69
2023/01/01 03:27:19;;;;;;;11.93;3.38;;;;;;;;;;4994957;28;20234;-69
2023/01/01 03:29:47;;;;;;;8.07;3.55;;;;;;;;;;4991230;28;20179;-68
2023/01/01 03:32:20;;;;;;;10.35;4.30;;;;;;;;;;4986346;28;20237;-68
2023/01/01 03:34:53;;;;;;;9.15;2.65;;;;;;;;;;4991827;28;20702;-68
2023/01/01 03:37:23;;;;;;;6.93;2.55;;;;;;;;;;4987463;28;20187;-69
2023/01/01 03:39:52;;;;;;;7.70;3.20;;;;;;;;;;4995073;28;20241;-68
2023/01/01 03:42:30;;;;;;;7.07;2.72;;;;;;;;;;4984103;28;20226;-68
2023/01/01 03:45:25;;;;;;;12.32;3.28;;;;;;;;;;4990220;28;20609;-69
2023/01/01 03:47:51;;;;;;;8.27;2.80;;;;;;;;;;4986456;28;20777;-68
2023/01/01 03:50:18;;;;;;;9.88;2.72;;;;;;;;;;4985683;28;20278;-68
2023/01/01 03:52:59;;;;;;;6.72;2.38;;;;;;;;;;4990706;28;20244;-68
2023/01/01 03:55:31;;;;;;;8.32;2.63;;;;;;;;;;4986443;28;20268;-68
2023/01/01 03:58:22;;;;;;;8.20;2.40;;;;;;;;;;4990920;28;20214;-68
2023/01/01 04:01:00;;;;;;;9.18;2.20;;;;;;;;;;4981770;28;20290;-68
2023/01/01 04:03:28;;;;;;;7.97;2.40;;;;;;;;;;4984695;28;20599;-68
2023/01/01 04:05:54;;;;;;;11.02;4.18;;;;;;;;;;4990313;28;20184;-67
2023/01/01 04:08:20;;;;;;;11.05;3.20;;;;;;;;;;4988904;28;20202;-68
2023/01/01 04:10:50;;;;;;;10.55;3.63;;;;;;;;;;4982904;28;20184;-68
2023/01/01 04:13:15;;;;;;;8.20;2.78;;;;;;;;;;4999180;28;20655;-68
2023/01/01 04:15:41;;;;;;;6.03;2.28;;;;;;;;;;4992678;28;20184;-68
2023/01/01 04:18:07;;;;;;;7.75;1.85;;;;;;;;;;4995406;28;20681;-68
2023/01/01 04:20:32;;;;;;;9.95;2.92;;;;;;;;;;4989810;28;20206;-68
2023/01/01 04:22:59;;;;;;;10.52;2.53;;;;;;;;;;5001486;28;20231;-68
2023/01/01 04:25:24;;;;;;;7.10;1.98;;;;;;;;;;4989216;28;20628;-68
2023/01/01 04:27:50;;;;;;;8.85;2.15;;;;;;;;;;4997684;28;20187;-68
2023/01/01 04:30:15;;;;;;;12.82;2.50;;;;;;;;;;4990707;28;20186;-68
2023/01/01 04:32:41;;;;;;;8.48;2.47;;;;;;;;;;4978831;28;20192;-68
2023/01/01 04:35:08;;;;;;;6.70;2.53;;;;;;;;;;4993431;28;20203;-68
2023/01/01 04:37:37;;;;;;;9.23;2.80;;;;;;;;;;4990768;28;20206;-67
2023/01/01 04:40:04;;;;;;;6.85;2.42;;;;;;;;;;4990784;28;20191;-68
2023/01/01 04:42:29;;;;;;;10.52;2.53;;;;;;;;;;4999890;28;20600;-68
2023/01/01 04:44:55;;;;;;;7.75;2.13;;;;;;;;;;4993465;28;20250;-67
2023/01/01 04:47:21;;;;;;;10.93;2.83;;;;;;;;;;4978340;28;20242;-68
2023/01/01 04:49:46;;;;;;;11.45;2.65;;;;;;;;;;4993193;28;20190;-67
2023/01/01 04:52:11;;;;;;;9.68;2.47;;;;;;;;;;4986260;28;20566;-68
2023/01/01 04:54:37;;;;;;;10.25;1.92;;;;;;;;;;4989477;28;20302;-68
2023/01/01 04:57:02;;;;;;;8.32;2.00;;;;;;;;;;4978979;28;20720;-68
2023/01/01 04:59:31;;;;;;;4.93;2.28;;;;;;;;;;4990448;28;20223;-68
2023/01/01 05:01:57;;;;;;;11.00;2.42;;;;;;;;;;4990325;28;20592;-68
2023/01/01 05:04:22;;;;;;;11.07;2.00;;;;;;;;;;4995238;28;20234;-68
2023/01/01 05:06:47;;;;;;;4.80;2.10;;;;;;;;;;4985794;28;20262;-67
2023/01/01 05:09:13;;;;;;;8.90;2.00;;;;;;;;;;4990124;28;20199;-68
2023/01/01 05:11:38;;;;;;;5.07;1.75;;;;;;;;;;4981749;28;20394;-69
2023/01/01 05:14:04;;;;;;;6.55;1.80;;;;;;;;;;4987304;28;20244;-68
2023/01/01 05:16:32;;;;;;;11.70;2.30;;;;;;;;;;4984442;28;20213;-68
2023/01/01 05:18:58;;;;;;;7.93;1.70;;;;;;;;;;4985246;28;20488;-68
2023/01/01 05:21:26;;;;;;;7.05;1.80;;;;;;;;;;4985281;28;20202;-67
2023/01/01 05:23:56;;;;;;;6.05;1.88;;;;;;;;;;4987940;28;20419;-68
2023/01/01 05:26:23;;;;;;;10.65;3.00;;;;;;;;;;4988778;28;20254;-67
2023/01/01 05:28:49;;;;;;;9.13;2.40;;;;;;;;;;4983746;28;20183;-68
2023/01/01 05:31:17;;;;;;;6.82;2.42;;;;;;;;;;4984501;28;20197;-68
2023/01/01 05:33:42;;;;;;;5.50;1.70;;;;;;;;;;4988359;28;20431;-67
2023/01/01 05:36:14;;;;;;;7.95;2.13;;;;;;;;;;4987558;28;20234;-67
2023/01/01 05:38:39;;;;;;;5.85;1.85;;;;;;;;;;4989084;28;20196;-68
2023/01/01 05:41:06;;;;;;;9.80;2.67;;;;;;;;;;4988416;28;20190;-67
2023/01/01 05:43:32;;;;;;;4.57;1.67;;;;;;;;;;4989919;28;20670;-67
2023/01/01 05:46:06;;;;;;;6.32;2.30;;;;;;;;;;4992026;28;20184;-67
2023/01/01 05:48:34;;;;;;;8.30;2.38;;;;;;;;;;4990978;28;20274;-67
2023/01/01 05:51:08;;;;;;;6.95;2.00;;;;;;;;;;4983692;28;20533;-67
2023/01/01 05:53:34;;;;;;;8.50;1.90;;;;;;;;;;4983615;28;20223;-67
2023/01/01 05:56:00;;;;;;;8.32;1.75;;;;;;;;;;4985513;28;20642;-67
2023/01/01 05:58:26;;;;;;;6.80;2.17;;;;;;;;;;4987182;28;20192;-67
2023/01/01 06:00:52;;;;;;;12.05;1.90;;;;;;;;;;4987305;28;20211;-67
2023/01/01 06:03:18;;;;;;;6.43;1.65;;;;;;;;;;4987224;28;20187;-67
2023/01/01 06:05:43;;;;;;;9.35;2.30;;;;;;;;;;4988161;28;20196;-67
2023/01/01 06:08:10;;;;;;;6.93;1.73;;;;;;;;;;4980169;28;20191;-67
2023/01/01 06:10:35;;;;;;;8.65;1.80;;;;;;;;;;4987953;28;20191;-67
2023/01/01 06:13:01;;;;;;;6.68;1.70;;;;;;;;;;4995160;28;20240;-67
2023/01/01 06:15:27;;;;;;;5.47;1.27;;;;;;;;;;5001783;28;20199;-67
2023/01/01 06:17:53;;;;;;;5.60;1.40;;;;;;;;;;4994905;28;20266;-67
2023/01/01 06:20:18;;;;;;;9.98;1.60;;;;;;;;;;4999231;28;20658;-67
2023/01/01 06:22:43;;;;;;;6.35;1.52;;;;;;;;;;4986071;28;20219;-67
2023/01/01 06:25:09;;;;;;;10.23;1.63;;;;;;;;;;4988623;28;20555;-67
2023/01/01 06:27:35;;;;;;;6.18;1.65;;;;;;;;;;4978886;28;20225;-67
2023/01/01 06:30:07;;;;;;;7.72;1.58;;;;;;;;;;4987636;28;20195;-67
2023/01/01 06:32:33;;;;;;;7.57;1.27;;;;;;;;;;4989521;28;20540;-67
2023/01/01 06:34:58;;;;;;;6.97;1.30;;;;;;;;;;5000742;28;20344;-67
2023/01/01 06:37:24;;;;;;;4.35;1.30;;;;;;;;;;4980713;28;20257;-67
2023/01/01 06:39:49;;;;;;;7.35;1.27;;;;;;;;;;4997506;28;20190;-67
2023/01/01 06:42:15;;;;;;;9.07;1.50;;;;;;;;;;4983706;28;20755;-68
2023/01/01 06:44:40;;;;;;;7.18;1.77;;;;;;;;;;4992133;28;20191;-67
2023/01/01 06:47:06;;;;;;;6.43;1.77;;;;;;;;;;4998311;28;20202;-67
2023/01/01 06:49:31;;;;;;;9.32;1.63;;;;;;;;;;4997963;28;20214;-67
2023/01/01 06:51:57;;;;;;;4.28;1.17;;;;;;;;;;4994704;28;20266;-67
2023/01/01 06:54:22;;;;;;;5.07;0.93;;;;;;;;;;4994235;28;20219;-67
2023/01/01 06:56:48;;;;;;;4.63;0.93;;;;;;;;;;5002452;28;20262;-67
2023/01/01 06:59:15;;;;;;;3.22;0.82;;;;;;;;;;4994907;28;20730;-67
2023/01/01 07:01:40;;;;;;;3.47;0.68;;;;;;;;;;4995016;28;20228;-67
2023/01/01 07:04:09;;;;;;;2.28;0.88;;;;;;;;;;4991478;28;20222;-67
2023/01/01 07:06:35;;;;;;;3.00;0.75;;;;;;;;;;5002823;28;20249;-68
2023/01/01 07:09:01;;;;;;;3.85;0.82;;;;;;;;;;5006681;28;20246;-67
2023/01/01 07:11:27;;;;;;;6.05;1.20;;;;;;;;;;5006320;28;20664;-67
2023/01/01 07:13:53;;;;;;;4.63;0.70;;;;;;;;;;4997239;28;20334;-68
2023/01/01 07:16:19;;;;;;;2.58;0.60;;;;;;;;;;4992520;28;20655;-67
2023/01/01 07:18:47;;;;;;;2.75;0.85;;;;;;;;;;4990214;28;20195;-68
2023/01/01 07:21:28;;;;;;;3.42;0.60;;;;;;;;;;4990754;28;20179;-67
2023/01/01 07:23:55;;;;;;;2.97;0.82;;;;;;;;;;4988722;28;20230;-67
2023/01/01 07:26:22;;;;;;;2.97;0.50;;;;;;;;;;5000261;28;20584;-67
2023/01/01 07:28:47;;;;;;;2.78;0.75;;;;;;;;;;4994482;28;20196;-67
2023/01/01 07:31:13;;;;;;;4.25;0.70;;;;;;;;;;4990098;28;20989;-67
2023/01/01 07:33:38;;;;;;;4.07;0.70;;;;;;;;;;4995939;28;20203;-67
2023/01/01 07:36:03;;;;;;;2.42;0.47;;;;;;;;;;5005593;28;20215;-67
2023/01/01 07:38:29;;;;;;;5.50;0.70;;;;;;;;;;5003704;28;20207;-67
2023/01/01 07:40:54;;;;;;;2.00;0.60;;;;;;;;;;4995807;28;20527;-67
2023/01/01 07:43:19;;;;;;;2.58;0.70;;;;;;;;;;4997484;28;20222;-67
2023/01/01 07:45:45;;;;;;;2.10;0.50;;;;;;;;;;5002912;28;20269;-68
2023/01/01 07:48:14;;;;;;;5.18;0.50;;;;;;;;;;4997216;28;20202;-71
2023/01/01 07:50:40;;;;;;;4.07;0.60;;;;;;;;;;4995249;28;20277;-67
2023/01/01 07:53:06;;;;;;;5.55;0.60;;;;;;;;;;4998007;28;20261;-69
2023/01/01 07:55:32;;;;;;;2.88;0.80;;;;;;;;;;4999792;28;20811;-67
2023/01/01 07:57:58;;;;;;;6.05;0.88;;;;;;;;;;5002858;28;20182;-68
2023/01/01 08:00:23;;;;;;;2.60;0.50;;;;;;;;;;5003603;28;20272;-67
2023/01/01 08:02:49;;;;;;;6.40;0.98;;;;;;;;;;5000890;28;20709;-67
2023/01/01 08:05:14;;;;;;;2.78;0.60;;;;;;;;;;4999537;28;20210;-67
2023/01/01 08:07:45;;;;;;;4.32;0.50;;;;;;;;;;5001936;28;20210;-67
2023/01/01 08:10:10;;;;;;;1.88;0.55;;;;;;;;;;5002876;28;20202;-67
2023/01/01 08:12:36;;;;;;;4.13;0.68;;;;;;;;;;5000819;28;20250;-67
2023/01/01 08:15:01;;;;;;;3.13;0.60;;;;;;;;;;5000944;28;20713;-67
2023/01/01 08:17:27;;;;;;;4.65;0.80;;;;;;;;;;4986228;28;20183;-67
2023/01/01 08:19:52;;;;;;;6.57;1.33;;;;;;;;;;4991082;28;20463;-67
2023/01/01 08:22:18;;;;;;;4.90;0.73;;;;;;;;;;4988786;28;20675;-67
2023/01/01 08:24:43;;;;;;;4.20;0.57;;;;;;;;;;4995966;28;20330;-67
2023/01/01 08:27:12;;;;;;;5.13;0.60;;;;;;;;;;4996352;28;20221;-67
2023/01/01 08:29:37;;;;;;;2.78;0.63;;;;;;;;;;4992384;28;20563;-67
2023/01/01 08:32:03;;;;;;;4.28;0.50;;;;;;;;;;4987616;28;20265;-67
2023/01/01 08:34:28;;;;;;;3.10;0.47;;;;;;;;;;4998876;28;20793;-67
2023/01/01 08:36:54;;;;;;;2.83;0.60;;;;;;;;;;4989136;28;20187;-67
2023/01/01 08:39:20;;;;;;;1.98;0.50;;;;;;;;;;4998368;28;20199;-67
2023/01/01 08:41:45;;;;;;;1.70;0.50;;;;;;;;;;4984673;28;20651;-67
2023/01/01 08:44:10;;;;;;;4.85;0.60;;;;;;;;;;4997329;28;20215;-66
2023/01/01 08:46:36;;;;;;;1.98;0.60;;;;;;;;;;4989599;28;20203;-66
2023/01/01 08:49:01;;;;;;;7.38;0.77;;;;;;;;;;4979743;28;20254;-67
2023/01/01 08:51:26;;;;;;;3.78;0.60;;;;;;;;;;4984011;28;20604;-66
2023/01/01 08:53:52;;;;;;;2.40;0.57;;;;;;;;;;4989452;28;20211;-66
2023/01/01 08:56:19;;;;;;;3.03;0.60;;;;;;;;;;4989363;28;20583;-66
2023/01/01 08:58:44;;;;;;;6.50;0.77;;;;;;;;;;4981199;28;20593;-66
2023/01/01 09:01:10;;;;;;;4.43;0.60;;;;;;;;;;4986832;28;20246;-66
2023/01/01 09:03:36;;;;;;;5.60;0.82;;;;;;;;;;4981228;28;20284;-66
2023/01/01 09:06:02;;;;;;;5.50;0.70;;;;;;;;;;4989371;28;20550;-66
2023/01/01 09:08:27;;;;;;;5.25;0.80;;;;;;;;;;4980254;28;20200;-66
2023/01/01 09:10:57;;;;;;;7.03;0.90;;;;;;;;;;4998809;28;20191;-66
2023/01/01 09:13:22;;;;;;;3.95;0.52;;;;;;;;;;4999302;28;20206;-66
2023/01/01 09:15:48;;;;;;;5.65;1.10;;;;;;;;;;4997399;28;20256;-66
2023/01/01 09:18:13;;;;;;;6.50;0.90;;;;;;;;;;4981903;28;20192;-66
2023/01/01 09:20:39;;;;;;;6.05;0.63;;;;;;;;;;4986863;28;20523;-66
2023/01/01 09:23:06;;;;;;;5.57;0.88;;;;;;;;;;4982863;28;20236;-66
2023/01/01 09:25:33;;;;;;;6.03;1.20;;;;;;;;;;4991251;28;20191;-66
2023/01/01 09:28:01;;;;;;;8.05;0.75;;;;;;;;;;4991527;28;20223;-66
2023/01/01 09:30:27;;;;;;;4.30;0.80;;;;;;;;;;4990874;28;20421;-66
2023/01/01 09:32:52;;;;;;;5.45;1.15;;;;;;;;;;4992269;28;20274;-66
2023/01/01 09:35:18;;;;;;;6.68;0.90;;;;;;;;;;5003913;28;20446;-66
2023/01/01 09:37:43;;;;;;;6.78;1.13;;;;;;;;;;4997252;28;20279;-66
2023/01/01 09:40:48;;;;;;;5.30;1.02;;;;;;;;;;4992917;28;20218;-66
2023/01/01 09:43:28;;;;;;;2.60;0.80;;;;;;;;;;4301286;28;10000148;-66
2023/01/01 09:45:59;;;;;;;4.65;0.80;;;;;;;;;;4995138;28;20179;-66
2023/01/01 09:48:27;;;;;;;3.38;0.90;;;;;;;;;;4991931;28;20187;-66
2023/01/01 09:50:53;;;;;;;3.67;0.50;;;;;;;;;;4990096;28;20191;-66
2023/01/01 09:53:33;;;;;;;2.88;0.77;;;;;;;;;;4992527;28;20202;-66
2023/01/01 09:56:01;;;;;;;3.58;0.80;;;;;;;;;;4984340;28;20662;-66
2023/01/01 09:58:33;;;;;;;5.30;0.85;;;;;;;;;;4993353;28;20206;-66
2023/01/01 10:01:30;;;;;;;4.15;0.88;;;;;;;;;;4991183;28;20295;-66
2023/01/01 10:04:04;;;;;;;4.53;0.90;;;;;;;;;;4988909;28;20179;-66
2023/01/01 10:06:32;;;;;;;5.95;1.10;;;;;;;;;;4987075;28;20229;-66
2023/01/01 10:09:06;;;;;;;8.00;1.55;;;;;;;;;;4996111;28;20571;-66
2023/01/01 10:11:41;;;;;;;11.02;1.35;;;;;;;;;;4988167;28;20392;-66
2023/01/01 10:14:20;;;;;;;6.97;0.90;;;;;;;;;;4988810;28;20785;-66
2023/01/01 10:16:51;;;;;;;4.32;1.10;;;;;;;;;;4989007;28;20209;-66
2023/01/01 10:19:35;;;;;;;6.05;1.13;;;;;;;;;;4986866;28;20190;-66
2023/01/01 10:22:06;;;;;;;10.40;1.50;;;;;;;;;;4992143;28;20480;-66
2023/01/01 10:24:41;;;;;;;6.78;1.17;;;;;;;;;;4986206;28;20249;-66
2023/01/01 10:27:19;;;;;;;5.68;1.05;;;;;;;;;;4995337;28;20670;-66
2023/01/01 10:29:48;;;;;;;8.82;1.30;;;;;;;;;;4991238;28;20190;-66
2023/01/01 10:32:19;;;;;;;6.75;1.13;;;;;;;;;;4987901;28;20227;-66
2023/01/01 10:34:44;;;;;;;8.23;1.42;;;;;;;;;;4984198;28;20307;-66
2023/01/01 10:37:11;;;;;;;5.30;1.13;;;;;;;;;;4983367;28;20274;-66
2023/01/01 10:39:38;;;;;;;8.68;1.25;;;;;;;;;;4986515;28;20698;-66
2023/01/01 10:42:03;;;;;;;6.03;1.40;;;;;;;;;;4985607;28;20183;-66
2023/01/01 10:44:32;;;;;;;8.90;1.27;;;;;;;;;;4988464;28;20266;-66
2023/01/01 10:47:00;;;;;;;6.22;1.70;;;;;;;;;;4986423;28;20206;-66
2023/01/01 10:49:25;;;;;;;7.57;2.45;;;;;;;;;;4984694;28;20187;-66
2023/01/01 10:51:53;;;;;;;8.93;1.48;;;;;;;;;;4993011;28;20190;-66
2023/01/01 10:54:35;;;;;;;9.02;1.50;;;;;;;;;;4989115;28;20203;-66
2023/01/01 10:57:27;;;;;;;5.95;1.30;;;;;;;;;;5001646;28;20195;-66
2023/01/01 10:59:53;;;;;;;6.82;1.73;;;;;;;;;;4996714;28;20224;-66
2023/01/01 11:02:22;;;;;;;7.82;1.98;;;;;;;;;;4996069;28;20210;-66
2023/01/01 11:04:49;;;;;;;12.32;1.75;;;;;;;;;;4998297;28;20175;-66
2023/01/01 11:07:35;;;;;;;15.27;2.80;;;;;;;;;;4999365;28;20247;-66
2023/01/01 11:10:04;;;;;;;11.88;2.10;;;;;;;;;;4999853;28;20260;-65
2023/01/01 11:12:34;;;;;;;8.27;1.80;;;;;;;;;;5000946;28;20187;-67
2023/01/01 11:15:01;;;;;;;7.65;1.45;;;;;;;;;;4993594;28;20230;-67
2023/01/01 11:17:32;;;;;;;7.47;1.77;;;;;;;;;;4994658;28;20197;-66
2023/01/01 11:19:59;;;;;;;7.97;1.65;;;;;;;;;;4991193;28;20187;-67
2023/01/01 11:22:38;;;;;;;10.88;1.80;;;;;;;;;;4996385;28;20279;-67
2023/01/01 11:25:22;;;;;;;8.55;1.60;;;;;;;;;;4996777;28;20282;-67
2023/01/01 11:27:48;;;;;;;9.90;1.80;;;;;;;;;;5004589;28;20179;-66
2023/01/01 11:30:27;;;;;;;9.65;2.22;;;;;;;;;;5001055;28;20190;-66
2023/01/01 11:32:59;;;;;;;11.68;1.83;;;;;;;;;;5004599;28;20218;-66
2023/01/01 11:35:28;;;;;;;6.32;1.45;;;;;;;;;;5004977;28;20218;-66
2023/01/01 11:37:54;;;;;;;13.88;1.60;;;;;;;;;;4999756;28;20203;-66
2023/01/01 11:40:23;;;;;;;11.98;2.15;;;;;;;;;;4993824;28;20195;-66
2023/01/01 11:42:53;;;;;;;9.88;1.83;;;;;;;;;;4999633;28;20221;-67
2023/01/01 11:45:23;;;;;;;8.40;1.83;;;;;;;;;;4999530;28;20689;-66
2023/01/01 11:48:00;;;;;;;7.93;1.83;;;;;;;;;;5006277;28;20187;-66
2023/01/01 11:50:32;;;;;;;8.60;1.60;;;;;;;;;;5001904;28;20227;-66
2023/01/01 11:53:18;;;;;;;7.15;1.52;;;;;;;;;;4986007;28;20192;-66
2023/01/01 11:56:01;;;;;;;11.25;1.70;;;;;;;;;;4996494;28;20226;-66
2023/01/01 11:58:35;;;;;;;9.00;1.92;;;;;;;;;;4994518;28;20211;-66
2023/01/01 12:01:18;;;;;;;7.03;1.45;;;;;;;;;;5005741;28;20237;-67
2023/01/01 12:03:46;;;;;;;10.10;2.88;;;;;;;;;;4994685;28;20207;-66
2023/01/01 12:06:41;;;;;;;9.40;1.50;;;;;;;;;;4999616;28;20217;-66
2023/01/01 12:09:26;;;;;;;9.15;2.00;;;;;;;;;;4997658;28;20189;-66
2023/01/01 12:11:59;;;;;;;6.00;1.60;;;;;;;;;;4991115;28;20187;-67
2023/01/01 12:14:28;;;;;;;9.93;1.92;;;;;;;;;;4987558;28;20214;-66
2023/01/01 12:16:56;;;;;;;10.48;2.97;;;;;;;;;;4977424;28;20287;-66
2023/01/01 12:19:43;;;;;;;12.75;2.13;;;;;;;;;;5001889;28;20219;-66
2023/01/01 12:22:17;;;;;;;8.32;1.90;;;;;;;;;;4986006;28;20678;-66
2023/01/01 12:24:44;;;;;;;9.10;2.10;;;;;;;;;;4991642;28;20302;-66
2023/01/01 12:27:42;;;;;;;10.88;2.38;;;;;;;;;;4986622;28;20206;-66
2023/01/01 12:30:24;;;;;;;14.40;3.10;;;;;;;;;;4984164;28;20192;-67
2023/01/01 12:33:17;;;;;;;11.82;2.60;;;;;;;;;;4978197;28;20241;-67
2023/01/01 12:36:00;;;;;;;12.68;2.67;;;;;;;;;;4298354;28;10000108;-66
2023/01/01 12:38:31;;;;;;;10.82;2.75;;;;;;;;;;4975193;28;20284;-66
2023/01/01 12:41:25;;;;;;;14.70;3.22;;;;;;;;;;4976187;28;20203;-66
2023/01/01 12:44:17;;;;;;;10.43;2.22;;;;;;;;;;4976692;28;20188;-66
2023/01/01 12:47:10;;;;;;;12.35;2.40;;;;;;;;;;4992452;28;20384;-66
2023/01/01 12:49:56;;;;;;;10.95;2.40;;;;;;;;;;4988593;28;20633;-68
2023/01/01 12:52:43;;;;;;;11.10;2.40;;;;;;;;;;4986829;28;20792;-67
2023/01/01 12:55:24;;;;;;;13.75;2.78;;;;;;;;;;4984365;28;20219;-66
2023/01/01 12:58:06;;;;;;;7.93;2.78;;;;;;;;;;4987881;28;20654;-66
2023/01/01 13:00:34;;;;;;;8.70;2.55;;;;;;;;;;4986208;28;20302;-66
2023/01/01 13:03:06;;;;;;;11.82;2.40;;;;;;;;;;4988661;28;20253;-67
2023/01/01 13:05:44;;;;;;;6.70;2.30;;;;;;;;;;4980816;28;20337;-67
2023/01/01 13:08:10;;;;;;;9.65;2.78;;;;;;;;;;4988953;28;20202;-67
2023/01/01 13:10:42;;;;;;;9.68;2.70;;;;;;;;;;4976359;28;20191;-67
2023/01/01 13:13:10;;;;;;;10.88;2.55;;;;;;;;;;4979017;28;20257;-67
2023/01/01 13:15:39;;;;;;;10.10;3.03;;;;;;;;;;4991954;28;20296;-67
2023/01/01 13:18:13;;;;;;;7.75;2.90;;;;;;;;;;4984483;28;20237;-68
2023/01/01 13:20:52;;;;;;;15.40;8.95;;;;;;;;;;4979045;28;20198;-66
2023/01/01 13:23:28;;;;;;;10.48;3.58;;;;;;;;;;4986342;28;20606;-66
2023/01/01 13:26:24;;;;;;;11.43;4.10;;;;;;;;;;4982800;28;20207;-66
2023/01/01 13:28:58;;;;;;;9.05;2.97;;;;;;;;;;4986776;28;20223;-67
2023/01/01 13:31:47;;;;;;;8.80;2.90;;;;;;;;;;4986654;28;20282;-67
2023/01/01 13:34:36;;;;;;;9.95;4.43;;;;;;;;;;4974992;28;20691;-67
2023/01/01 13:37:14;;;;;;;9.70;4.53;;;;;;;;;;4982658;28;20420;-68
2023/01/01 13:40:01;;;;;;;13.52;4.18;;;;;;;;;;4980433;28;20190;-67
2023/01/01 13:43:05;;;;;;;15.50;3.65;;;;;;;;;;4978450;28;20707;-68
2023/01/01 13:45:41;;;;;;;13.98;3.67;;;;;;;;;;4986129;28;20292;-67
2023/01/01 13:48:24;;;;;;;15.57;4.15;;;;;;;;;;4987221;28;20257;-66
2023/01/01 13:50:55;;;;;;;9.82;3.92;;;;;;;;;;4979959;28;20198;-67
2023/01/01 13:54:01;;;;;;;10.40;3.63;;;;;;;;;;4985073;28;20219;-65
2023/01/01 13:57:00;;;;;;;12.15;4.55;;;;;;;;;;4972743;28;20203;-66
2023/01/01 13:59:44;;;;;;;10.70;3.30;;;;;;;;;;4968910;28;20513;-66
2023/01/01 14:02:32;;;;;;;31.08;20.65;;;;;;;;;;4988367;28;20183;-66
2023/01/01 14:05:03;;;;;;;14.20;5.13;;;;;;;;;;4989218;28;20223;-66
2023/01/01 14:07:40;;;;;;;24.80;12.15;;;;;;;;;;4991579;28;20277;-66
2023/01/01 14:10:32;;;;;;;15.65;6.50;;;;;;;;;;4989348;28;20512;-66
2023/01/01 14:13:15;;;;;;;17.67;5.38;;;;;;;;;;4978996;28;20748;-66
2023/01/01 14:15:55;;;;;;;11.27;3.70;;;;;;;;;;4992105;28;20403;-67
2023/01/01 14:18:32;;;;;;;12.23;3.40;;;;;;;;;;4988339;28;20315;-66
2023/01/01 14:20:57;;;;;;;15.38;4.13;;;;;;;;;;4986941;28;20191;-66
2023/01/01 14:23:32;;;;;;;14.13;3.10;;;;;;;;;;4995062;28;20232;-66
2023/01/01 14:26:00;;;;;;;14.88;3.10;;;;;;;;;;4977976;28;20191;-66
2023/01/01 14:28:31;;;;;;;11.50;3.10;;;;;;;;;;4983237;28;20589;-66
2023/01/01 14:30:58;;;;;;;12.27;3.35;;;;;;;;;;4983802;28;20198;-66
2023/01/01 14:33:26;;;;;;;13.88;3.15;;;;;;;;;;4989057;28;20589;-67
2023/01/01 14:36:01;;;;;;;13.73;4.65;;;;;;;;;;4980055;28;20215;-67
2023/01/01 14:38:31;;;;;;;13.35;4.80;;;;;;;;;;4984824;28;20190;-66
2023/01/01 14:41:03;;;;;;;16.17;3.95;;;;;;;;;;4981192;28;20752;-66
2023/01/01 14:43:28;;;;;;;17.50;3.75;;;;;;;;;;4983675;28;20199;-66
2023/01/01 14:45:54;;;;;;;15.18;3.90;;;;;;;;;;4981284;28;20456;-67
2023/01/01 14:48:27;;;;;;;12.55;4.10;;;;;;;;;;4985246;28;20222;-66
2023/01/01 14:50:52;;;;;;;15.65;4.40;;;;;;;;;;4987482;28;20187;-66
2023/01/01 14:53:22;;;;;;;17.95;4.22;;;;;;;;;;4981983;28;20676;-67
2023/01/01 14:55:48;;;;;;;13.93;3.70;;;;;;;;;;4989276;28;20224;-67
2023/01/01 14:58:24;;;;;;;15.23;3.28;;;;;;;;;;4988693;28;20195;-67
2023/01/01 15:00:50;;;;;;;16.65;4.32;;;;;;;;;;4980230;28;20215;-67
2023/01/01 15:03:18;;;;;;;18.48;4.03;;;;;;;;;;4994019;28;20219;-66
2023/01/01 15:05:56;;;;;;;15.43;3.10;;;;;;;;;;4991398;28;20194;-67
2023/01/01 15:08:24;;;;;;;17.45;3.63;;;;;;;;;;4997470;28;20301;-67